sensor_id;sensor_type;location;lat;lon;timestamp;P1;durP1;ratioP1;P2;durP2;ratioP2
5585;SDS011;2815;54.094;12.112;2023-05-07T00:01:36;9.38;;;3.95;;
5585;SDS011;2815;54.094;12.112;2023-05-07T00:04:05;14.18;;;3.35;;
5585;SDS011;2815;54.094;12.112;2023-05-07T00:06:34;2.78;;;2.08;;
5585;SDS011;2815;54.094;12.112;2023-05-07T00:09:02;5.18;;;3.20;;
5585;SDS011;2815;54.094;12.112;2023-05-07T00:11:30;6.35;;;3.50;;
5585;SDS011;2815;54.094;12.112;2023-05-07T00:14:00;6.88;;;3.38;;
5585;SDS011;2815;54.094;12.112;2023-05-07T00:16:28;16.52;;;3.75;;
5585;SDS011;2815;54.094;12.112;2023-05-07T00:18:57;5.88;;;3.00;;
5585;SDS011;2815;54.094;12.112;2023-05-07T00:21:25;6.60;;;3.90;;
5585;SDS011;2815;54.094;12.112;2023-05-07T00:23:53;9.63;;;3.70;;
5585;SDS011;2815;54.094;12.112;2023-05-07T00:26:21;9.57;;;3.78;;
5585;SDS011;2815;54.094;12.112;2023-05-07T00:28:50;5.78;;;3.50;;
5585;SDS011;2815;54.094;12.112;2023-05-07T00:31:18;8.27;;;4.05;;
5585;SDS011;2815;54.094;12.112;2023-05-07T00:33:48;7.43;;;3.70;;
5585;SDS011;2815;54.094;12.112;2023-05-07T00:36:17;9.30;;;3.70;;
5585;SDS011;2815;54.094;12.112;2023-05-07T00:38:45;9.73;;;3.88;;
5585;SDS011;2815;54.094;12.112;2023-05-07T00:41:13;8.23;;;3.88;;
5585;SDS011;2815;54.094;12.112;2023-05-07T00:43:41;5.85;;;3.47;;
5585;SDS011;2815;54.094;12.112;2023-05-07T00:46:09;7.40;;;2.88;;
5585;SDS011;2815;54.094;12.112;2023-05-07T00:48:38;13.43;;;3.83;;
5585;SDS011;2815;54.094;12.112;2023-05-07T00:51:06;7.15;;;3.20;;
5585;SDS011;2815;54.094;12.112;2023-05-07T00:53:35;7.82;;;3.67;;
5585;SDS011;2815;54.094;12.112;2023-05-07T00:56:03;8.27;;;3.83;;
5585;SDS011;2815;54.094;12.112;2023-05-07T00:58:34;5.70;;;2.95;;
5585;SDS011;2815;54.094;12.112;2023-05-07T01:01:02;8.77;;;4.22;;
5585;SDS011;2815;54.094;12.112;2023-05-07T01:03:30;9.43;;;3.75;;
5585;SDS011;2815;54.094;12.112;2023-05-07T01:05:59;7.47;;;3.47;;
5585;SDS011;2815;54.094;12.112;2023-05-07T01:08:27;7.53;;;3.17;;
5585;SDS011;2815;54.094;12.112;2023-05-07T01:10:57;8.77;;;3.53;;
5585;SDS011;2815;54.094;12.112;2023-05-07T01:13:26;7.45;;;3.65;;
5585;SDS011;2815;54.094;12.112;2023-05-07T01:15:55;7.63;;;3.40;;
5585;SDS011;2815;54.094;12.112;2023-05-07T01:18:23;6.90;;;3.38;;
5585;SDS011;2815;54.094;12.112;2023-05-07T01:20:52;6.18;;;3.28;;
5585;SDS011;2815;54.094;12.112;2023-05-07T01:23:21;9.15;;;4.45;;
5585;SDS011;2815;54.094;12.112;2023-05-07T01:25:53;7.55;;;3.38;;
5585;SDS011;2815;54.094;12.112;2023-05-07T01:28:24;6.80;;;3.30;;
5585;SDS011;2815;54.094;12.112;2023-05-07T01:30:56;4.70;;;3.15;;
5585;SDS011;2815;54.094;12.112;2023-05-07T01:33:28;9.52;;;3.78;;
5585;SDS011;2815;54.094;12.112;2023-05-07T01:35:58;10.68;;;3.58;;
5585;SDS011;2815;54.094;12.112;2023-05-07T01:38:28;6.90;;;3.60;;
5585;SDS011;2815;54.094;12.112;2023-05-07T01:40:56;9.13;;;4.18;;
5585;SDS011;2815;54.094;12.112;2023-05-07T01:43:24;10.45;;;3.70;;
5585;SDS011;2815;54.094;12.112;2023-05-07T01:45:53;8.38;;;3.60;;
5585;SDS011;2815;54.094;12.112;2023-05-07T01:48:21;7.07;;;3.38;;
5585;SDS011;2815;54.094;12.112;2023-05-07T01:50:49;9.48;;;3.67;;
5585;SDS011;2815;54.094;12.112;2023-05-07T01:53:18;8.02;;;3.35;;
5585;SDS011;2815;54.094;12.112;2023-05-07T01:55:47;11.55;;;3.53;;
5585;SDS011;2815;54.094;12.112;2023-05-07T01:58:15;7.72;;;2.75;;
5585;SDS011;2815;54.094;12.112;2023-05-07T02:00:43;7.53;;;3.78;;
5585;SDS011;2815;54.094;12.112;2023-05-07T02:03:12;8.48;;;3.70;;
5585;SDS011;2815;54.094;12.112;2023-05-07T02:05:48;7.38;;;3.70;;
5585;SDS011;2815;54.094;12.112;2023-05-07T02:08:43;8.43;;;3.60;;
5585;SDS011;2815;54.094;12.112;2023-05-07T02:11:13;9.40;;;3.67;;
5585;SDS011;2815;54.094;12.112;2023-05-07T02:13:41;12.40;;;4.13;;
5585;SDS011;2815;54.094;12.112;2023-05-07T02:16:09;8.63;;;3.53;;
5585;SDS011;2815;54.094;12.112;2023-05-07T02:18:38;10.93;;;3.55;;
5585;SDS011;2815;54.094;12.112;2023-05-07T02:21:06;9.05;;;4.03;;
5585;SDS011;2815;54.094;12.112;2023-05-07T02:23:34;8.15;;;3.03;;
5585;SDS011;2815;54.094;12.112;2023-05-07T02:26:03;8.20;;;3.38;;
5585;SDS011;2815;54.094;12.112;2023-05-07T02:31:04;5.38;;;2.72;;
5585;SDS011;2815;54.094;12.112;2023-05-07T02:33:33;10.15;;;3.55;;
5585;SDS011;2815;54.094;12.112;2023-05-07T02:36:05;3.95;;;2.30;;
5585;SDS011;2815;54.094;12.112;2023-05-07T02:38:36;9.63;;;3.97;;
5585;SDS011;2815;54.094;12.112;2023-05-07T02:41:05;8.95;;;3.88;;
5585;SDS011;2815;54.094;12.112;2023-05-07T02:43:32;17.50;;;3.67;;
5585;SDS011;2815;54.094;12.112;2023-05-07T02:46:02;7.20;;;3.88;;
5585;SDS011;2815;54.094;12.112;2023-05-07T02:48:33;10.20;;;3.95;;
5585;SDS011;2815;54.094;12.112;2023-05-07T02:51:01;7.80;;;3.65;;
5585;SDS011;2815;54.094;12.112;2023-05-07T02:53:30;11.02;;;4.10;;
5585;SDS011;2815;54.094;12.112;2023-05-07T02:55:59;11.52;;;4.00;;
5585;SDS011;2815;54.094;12.112;2023-05-07T02:58:28;13.30;;;4.15;;
5585;SDS011;2815;54.094;12.112;2023-05-07T03:00:59;5.82;;;3.60;;
5585;SDS011;2815;54.094;12.112;2023-05-07T03:03:56;8.68;;;3.72;;
5585;SDS011;2815;54.094;12.112;2023-05-07T03:06:24;9.15;;;4.00;;
5585;SDS011;2815;54.094;12.112;2023-05-07T03:08:52;9.80;;;3.65;;
5585;SDS011;2815;54.094;12.112;2023-05-07T03:11:20;10.25;;;4.72;;
5585;SDS011;2815;54.094;12.112;2023-05-07T03:13:48;8.45;;;3.90;;
5585;SDS011;2815;54.094;12.112;2023-05-07T03:16:20;7.90;;;3.90;;
5585;SDS011;2815;54.094;12.112;2023-05-07T03:18:48;7.70;;;4.03;;
5585;SDS011;2815;54.094;12.112;2023-05-07T03:21:16;7.63;;;4.15;;
5585;SDS011;2815;54.094;12.112;2023-05-07T03:23:44;12.48;;;4.25;;
5585;SDS011;2815;54.094;12.112;2023-05-07T03:26:12;8.38;;;4.15;;
5585;SDS011;2815;54.094;12.112;2023-05-07T03:28:41;7.60;;;3.50;;
5585;SDS011;2815;54.094;12.112;2023-05-07T03:31:12;9.18;;;3.88;;
5585;SDS011;2815;54.094;12.112;2023-05-07T03:33:50;11.18;;;4.00;;
5585;SDS011;2815;54.094;12.112;2023-05-07T03:36:19;10.02;;;4.18;;
5585;SDS011;2815;54.094;12.112;2023-05-07T03:38:47;7.45;;;3.80;;
5585;SDS011;2815;54.094;12.112;2023-05-07T03:41:19;6.40;;;3.30;;
5585;SDS011;2815;54.094;12.112;2023-05-07T03:43:49;6.18;;;3.72;;
5585;SDS011;2815;54.094;12.112;2023-05-07T03:46:17;6.50;;;4.00;;
5585;SDS011;2815;54.094;12.112;2023-05-07T03:48:45;8.77;;;3.90;;
5585;SDS011;2815;54.094;12.112;2023-05-07T03:51:16;10.27;;;4.10;;
5585;SDS011;2815;54.094;12.112;2023-05-07T03:53:44;6.93;;;4.28;;
5585;SDS011;2815;54.094;12.112;2023-05-07T03:56:12;8.57;;;4.00;;
5585;SDS011;2815;54.094;12.112;2023-05-07T03:58:43;11.98;;;3.90;;
5585;SDS011;2815;54.094;12.112;2023-05-07T04:01:11;9.35;;;3.45;;
5585;SDS011;2815;54.094;12.112;2023-05-07T04:03:39;6.25;;;3.67;;
5585;SDS011;2815;54.094;12.112;2023-05-07T04:06:08;11.23;;;4.60;;
5585;SDS011;2815;54.094;12.112;2023-05-07T04:08:41;6.70;;;3.80;;
5585;SDS011;2815;54.094;12.112;2023-05-07T04:11:09;7.72;;;4.07;;
5585;SDS011;2815;54.094;12.112;2023-05-07T04:13:37;7.45;;;3.92;;
5585;SDS011;2815;54.094;12.112;2023-05-07T04:16:07;10.73;;;3.92;;
5585;SDS011;2815;54.094;12.112;2023-05-07T04:18:36;8.27;;;3.83;;
5585;SDS011;2815;54.094;12.112;2023-05-07T04:21:04;12.77;;;3.75;;
5585;SDS011;2815;54.094;12.112;2023-05-07T04:23:36;9.25;;;3.88;;
5585;SDS011;2815;54.094;12.112;2023-05-07T04:26:09;6.68;;;4.20;;
5585;SDS011;2815;54.094;12.112;2023-05-07T04:28:40;11.05;;;4.43;;
5585;SDS011;2815;54.094;12.112;2023-05-07T04:31:09;6.20;;;3.65;;
5585;SDS011;2815;54.094;12.112;2023-05-07T04:33:38;9.23;;;3.75;;
5585;SDS011;2815;54.094;12.112;2023-05-07T04:36:09;9.77;;;3.42;;
5585;SDS011;2815;54.094;12.112;2023-05-07T04:38:44;7.90;;;3.63;;
5585;SDS011;2815;54.094;12.112;2023-05-07T04:41:14;7.00;;;3.65;;
5585;SDS011;2815;54.094;12.112;2023-05-07T04:43:43;8.20;;;4.05;;
5585;SDS011;2815;54.094;12.112;2023-05-07T04:46:13;8.13;;;3.85;;
5585;SDS011;2815;54.094;12.112;2023-05-07T04:48:42;8.52;;;3.90;;
5585;SDS011;2815;54.094;12.112;2023-05-07T04:51:10;7.95;;;3.83;;
5585;SDS011;2815;54.094;12.112;2023-05-07T04:53:38;6.63;;;3.50;;
5585;SDS011;2815;54.094;12.112;2023-05-07T04:56:07;8.02;;;3.90;;
5585;SDS011;2815;54.094;12.112;2023-05-07T04:58:40;6.97;;;4.07;;
5585;SDS011;2815;54.094;12.112;2023-05-07T05:01:09;9.00;;;4.75;;
5585;SDS011;2815;54.094;12.112;2023-05-07T05:03:38;8.02;;;3.53;;
5585;SDS011;2815;54.094;12.112;2023-05-07T05:06:07;11.20;;;4.43;;
5585;SDS011;2815;54.094;12.112;2023-05-07T05:08:35;7.57;;;4.35;;
5585;SDS011;2815;54.094;12.112;2023-05-07T05:11:04;9.70;;;4.50;;
5585;SDS011;2815;54.094;12.112;2023-05-07T05:13:34;6.45;;;3.60;;
5585;SDS011;2815;54.094;12.112;2023-05-07T05:16:10;5.57;;;3.00;;
5585;SDS011;2815;54.094;12.112;2023-05-07T05:18:39;5.97;;;3.35;;
5585;SDS011;2815;54.094;12.112;2023-05-07T05:21:09;8.48;;;3.70;;
5585;SDS011;2815;54.094;12.112;2023-05-07T05:23:39;10.52;;;4.03;;
5585;SDS011;2815;54.094;12.112;2023-05-07T05:26:07;11.60;;;4.68;;
5585;SDS011;2815;54.094;12.112;2023-05-07T05:28:36;7.25;;;4.13;;
5585;SDS011;2815;54.094;12.112;2023-05-07T05:31:04;6.70;;;3.78;;
5585;SDS011;2815;54.094;12.112;2023-05-07T05:33:36;6.65;;;3.47;;
5585;SDS011;2815;54.094;12.112;2023-05-07T05:36:07;7.30;;;3.67;;
5585;SDS011;2815;54.094;12.112;2023-05-07T05:38:38;6.17;;;3.70;;
5585;SDS011;2815;54.094;12.112;2023-05-07T05:41:07;8.52;;;4.35;;
5585;SDS011;2815;54.094;12.112;2023-05-07T05:43:35;7.90;;;4.07;;
5585;SDS011;2815;54.094;12.112;2023-05-07T05:46:03;7.78;;;3.95;;
5585;SDS011;2815;54.094;12.112;2023-05-07T05:48:32;8.18;;;4.18;;
5585;SDS011;2815;54.094;12.112;2023-05-07T05:51:02;10.52;;;4.57;;
5585;SDS011;2815;54.094;12.112;2023-05-07T05:53:30;6.72;;;3.92;;
5585;SDS011;2815;54.094;12.112;2023-05-07T05:55:58;7.55;;;4.65;;
5585;SDS011;2815;54.094;12.112;2023-05-07T05:58:28;7.85;;;3.63;;
5585;SDS011;2815;54.094;12.112;2023-05-07T06:01:00;9.48;;;4.63;;
5585;SDS011;2815;54.094;12.112;2023-05-07T06:03:29;9.27;;;4.32;;
5585;SDS011;2815;54.094;12.112;2023-05-07T06:06:02;9.23;;;4.57;;
5585;SDS011;2815;54.094;12.112;2023-05-07T06:08:31;8.13;;;3.97;;
5585;SDS011;2815;54.094;12.112;2023-05-07T06:11:00;5.90;;;3.20;;
5585;SDS011;2815;54.094;12.112;2023-05-07T06:13:31;9.68;;;4.60;;
5585;SDS011;2815;54.094;12.112;2023-05-07T06:15:59;6.93;;;4.05;;
5585;SDS011;2815;54.094;12.112;2023-05-07T06:18:28;7.10;;;4.35;;
5585;SDS011;2815;54.094;12.112;2023-05-07T06:20:57;9.48;;;4.28;;
5585;SDS011;2815;54.094;12.112;2023-05-07T06:23:30;6.40;;;3.95;;
5585;SDS011;2815;54.094;12.112;2023-05-07T06:25:59;5.65;;;3.10;;
5585;SDS011;2815;54.094;12.112;2023-05-07T06:28:33;7.93;;;4.10;;
5585;SDS011;2815;54.094;12.112;2023-05-07T06:31:12;9.75;;;4.20;;
5585;SDS011;2815;54.094;12.112;2023-05-07T06:33:43;12.02;;;4.03;;
5585;SDS011;2815;54.094;12.112;2023-05-07T06:36:13;7.93;;;3.60;;
5585;SDS011;2815;54.094;12.112;2023-05-07T06:38:47;6.88;;;3.83;;
5585;SDS011;2815;54.094;12.112;2023-05-07T06:41:16;5.95;;;4.00;;
5585;SDS011;2815;54.094;12.112;2023-05-07T06:43:44;5.80;;;4.13;;
5585;SDS011;2815;54.094;12.112;2023-05-07T06:46:36;7.15;;;3.80;;
5585;SDS011;2815;54.094;12.112;2023-05-07T06:49:05;6.30;;;4.22;;
5585;SDS011;2815;54.094;12.112;2023-05-07T06:51:34;7.20;;;3.55;;
5585;SDS011;2815;54.094;12.112;2023-05-07T06:54:04;6.47;;;3.50;;
5585;SDS011;2815;54.094;12.112;2023-05-07T06:56:34;6.47;;;3.53;;
5585;SDS011;2815;54.094;12.112;2023-05-07T06:59:03;7.40;;;3.58;;
5585;SDS011;2815;54.094;12.112;2023-05-07T07:01:36;6.93;;;3.40;;
5585;SDS011;2815;54.094;12.112;2023-05-07T07:04:05;4.63;;;3.20;;
5585;SDS011;2815;54.094;12.112;2023-05-07T07:06:34;4.90;;;2.47;;
5585;SDS011;2815;54.094;12.112;2023-05-07T07:09:08;7.07;;;3.45;;
5585;SDS011;2815;54.094;12.112;2023-05-07T07:11:36;5.47;;;3.30;;
5585;SDS011;2815;54.094;12.112;2023-05-07T07:14:05;4.47;;;2.25;;
5585;SDS011;2815;54.094;12.112;2023-05-07T07:16:39;6.28;;;2.72;;
5585;SDS011;2815;54.094;12.112;2023-05-07T07:19:07;7.55;;;3.40;;
5585;SDS011;2815;54.094;12.112;2023-05-07T07:21:35;6.32;;;3.00;;
5585;SDS011;2815;54.094;12.112;2023-05-07T07:24:04;3.85;;;2.58;;
5585;SDS011;2815;54.094;12.112;2023-05-07T07:26:34;7.32;;;3.25;;
5585;SDS011;2815;54.094;12.112;2023-05-07T07:29:02;18.02;;;2.67;;
5585;SDS011;2815;54.094;12.112;2023-05-07T07:31:31;3.75;;;2.40;;
5585;SDS011;2815;54.094;12.112;2023-05-07T07:33:59;2.85;;;2.35;;
5585;SDS011;2815;54.094;12.112;2023-05-07T07:36:27;5.38;;;2.78;;
5585;SDS011;2815;54.094;12.112;2023-05-07T07:39:11;6.00;;;2.35;;
5585;SDS011;2815;54.094;12.112;2023-05-07T07:41:42;4.63;;;2.55;;
5585;SDS011;2815;54.094;12.112;2023-05-07T07:44:11;4.88;;;2.53;;
5585;SDS011;2815;54.094;12.112;2023-05-07T07:46:44;8.60;;;3.00;;
5585;SDS011;2815;54.094;12.112;2023-05-07T07:49:12;4.95;;;2.45;;
5585;SDS011;2815;54.094;12.112;2023-05-07T07:51:42;3.45;;;2.20;;
5585;SDS011;2815;54.094;12.112;2023-05-07T07:54:11;4.60;;;2.10;;
5585;SDS011;2815;54.094;12.112;2023-05-07T07:56:39;4.80;;;3.00;;
5585;SDS011;2815;54.094;12.112;2023-05-07T07:59:10;7.43;;;2.33;;
5585;SDS011;2815;54.094;12.112;2023-05-07T08:01:40;4.95;;;2.38;;
5585;SDS011;2815;54.094;12.112;2023-05-07T08:04:09;3.35;;;2.17;;
5585;SDS011;2815;54.094;12.112;2023-05-07T08:06:40;5.10;;;2.63;;
5585;SDS011;2815;54.094;12.112;2023-05-07T08:09:11;7.13;;;2.47;;
5585;SDS011;2815;54.094;12.112;2023-05-07T08:11:40;3.78;;;1.83;;
5585;SDS011;2815;54.094;12.112;2023-05-07T08:14:13;4.00;;;2.38;;
5585;SDS011;2815;54.094;12.112;2023-05-07T08:16:45;4.60;;;2.50;;
5585;SDS011;2815;54.094;12.112;2023-05-07T08:19:13;5.47;;;2.20;;
5585;SDS011;2815;54.094;12.112;2023-05-07T08:21:41;4.18;;;2.72;;
5585;SDS011;2815;54.094;12.112;2023-05-07T08:24:10;3.20;;;2.28;;
5585;SDS011;2815;54.094;12.112;2023-05-07T08:26:40;4.25;;;2.40;;
5585;SDS011;2815;54.094;12.112;2023-05-07T08:29:10;4.88;;;3.13;;
5585;SDS011;2815;54.094;12.112;2023-05-07T08:31:39;4.97;;;2.60;;
5585;SDS011;2815;54.094;12.112;2023-05-07T08:34:07;7.80;;;2.55;;
5585;SDS011;2815;54.094;12.112;2023-05-07T08:36:40;4.90;;;2.58;;
5585;SDS011;2815;54.094;12.112;2023-05-07T08:39:13;8.25;;;2.53;;
5585;SDS011;2815;54.094;12.112;2023-05-07T08:41:41;5.38;;;2.75;;
5585;SDS011;2815;54.094;12.112;2023-05-07T08:44:15;5.47;;;2.42;;
5585;SDS011;2815;54.094;12.112;2023-05-07T08:46:48;6.82;;;2.85;;
5585;SDS011;2815;54.094;12.112;2023-05-07T08:49:18;4.15;;;2.38;;
5585;SDS011;2815;54.094;12.112;2023-05-07T08:51:46;5.03;;;2.65;;
5585;SDS011;2815;54.094;12.112;2023-05-07T08:54:15;4.53;;;2.70;;
5585;SDS011;2815;54.094;12.112;2023-05-07T08:56:44;5.20;;;2.80;;
5585;SDS011;2815;54.094;12.112;2023-05-07T08:59:12;6.78;;;2.40;;
5585;SDS011;2815;54.094;12.112;2023-05-07T09:01:42;3.53;;;2.00;;
5585;SDS011;2815;54.094;12.112;2023-05-07T09:04:12;4.68;;;2.42;;
5585;SDS011;2815;54.094;12.112;2023-05-07T09:06:41;4.72;;;2.85;;
5585;SDS011;2815;54.094;12.112;2023-05-07T09:09:13;5.22;;;2.10;;
5585;SDS011;2815;54.094;12.112;2023-05-07T09:11:42;3.95;;;2.40;;
5585;SDS011;2815;54.094;12.112;2023-05-07T09:14:11;4.60;;;1.92;;
5585;SDS011;2815;54.094;12.112;2023-05-07T09:16:42;3.63;;;2.70;;
5585;SDS011;2815;54.094;12.112;2023-05-07T09:19:12;4.93;;;2.38;;
5585;SDS011;2815;54.094;12.112;2023-05-07T09:21:43;3.63;;;2.38;;
5585;SDS011;2815;54.094;12.112;2023-05-07T09:24:14;3.85;;;2.58;;
5585;SDS011;2815;54.094;12.112;2023-05-07T09:26:43;3.92;;;2.60;;
5585;SDS011;2815;54.094;12.112;2023-05-07T09:29:13;8.32;;;2.63;;
5585;SDS011;2815;54.094;12.112;2023-05-07T09:31:43;4.00;;;2.08;;
5585;SDS011;2815;54.094;12.112;2023-05-07T09:34:15;5.88;;;2.10;;
5585;SDS011;2815;54.094;12.112;2023-05-07T09:36:45;5.70;;;2.33;;
5585;SDS011;2815;54.094;12.112;2023-05-07T09:39:13;1.60;;;1.27;;
5585;SDS011;2815;54.094;12.112;2023-05-07T09:41:46;4.05;;;2.33;;
5585;SDS011;2815;54.094;12.112;2023-05-07T09:44:21;5.68;;;2.67;;
5585;SDS011;2815;54.094;12.112;2023-05-07T09:46:53;4.50;;;2.00;;
5585;SDS011;2815;54.094;12.112;2023-05-07T09:49:32;2.85;;;1.92;;
5585;SDS011;2815;54.094;12.112;2023-05-07T09:52:05;3.95;;;2.28;;
5585;SDS011;2815;54.094;12.112;2023-05-07T09:54:38;2.95;;;2.15;;
5585;SDS011;2815;54.094;12.112;2023-05-07T09:57:10;3.60;;;1.92;;
5585;SDS011;2815;54.094;12.112;2023-05-07T09:59:42;2.95;;;2.38;;
5585;SDS011;2815;54.094;12.112;2023-05-07T10:04:49;6.68;;;2.38;;
5585;SDS011;2815;54.094;12.112;2023-05-07T10:07:22;4.65;;;2.15;;
5585;SDS011;2815;54.094;12.112;2023-05-07T10:09:53;6.00;;;2.15;;
5585;SDS011;2815;54.094;12.112;2023-05-07T10:12:31;3.20;;;2.17;;
5585;SDS011;2815;54.094;12.112;2023-05-07T10:15:09;2.20;;;1.60;;
5585;SDS011;2815;54.094;12.112;2023-05-07T10:17:41;4.88;;;2.10;;
5585;SDS011;2815;54.094;12.112;2023-05-07T10:20:12;2.97;;;1.80;;
5585;SDS011;2815;54.094;12.112;2023-05-07T10:22:43;3.13;;;1.73;;
5585;SDS011;2815;54.094;12.112;2023-05-07T10:25:16;4.75;;;1.85;;
5585;SDS011;2815;54.094;12.112;2023-05-07T10:27:46;4.13;;;2.15;;
5585;SDS011;2815;54.094;12.112;2023-05-07T10:30:23;4.47;;;2.03;;
5585;SDS011;2815;54.094;12.112;2023-05-07T10:32:59;3.63;;;2.10;;
5585;SDS011;2815;54.094;12.112;2023-05-07T10:35:37;3.00;;;2.28;;
5585;SDS011;2815;54.094;12.112;2023-05-07T10:38:08;6.40;;;2.20;;
5585;SDS011;2815;54.094;12.112;2023-05-07T10:40:39;3.55;;;1.88;;
5585;SDS011;2815;54.094;12.112;2023-05-07T10:43:07;3.25;;;2.10;;
5585;SDS011;2815;54.094;12.112;2023-05-07T10:49:09;3.58;;;2.00;;
5585;SDS011;2815;54.094;12.112;2023-05-07T10:52:12;2.63;;;1.85;;
5585;SDS011;2815;54.094;12.112;2023-05-07T11:04:28;4.63;;;1.95;;
5585;SDS011;2815;54.094;12.112;2023-05-07T11:07:25;5.35;;;2.53;;
5585;SDS011;2815;54.094;12.112;2023-05-07T11:10:00;4.72;;;2.20;;
5585;SDS011;2815;54.094;12.112;2023-05-07T11:12:50;4.18;;;2.42;;
5585;SDS011;2815;54.094;12.112;2023-05-07T11:15:37;4.05;;;2.50;;
5585;SDS011;2815;54.094;12.112;2023-05-07T11:18:24;3.05;;;1.40;;
5585;SDS011;2815;54.094;12.112;2023-05-07T11:20:56;5.35;;;2.55;;
5585;SDS011;2815;54.094;12.112;2023-05-07T11:26:50;7.00;;;2.70;;
5585;SDS011;2815;54.094;12.112;2023-05-07T11:29:21;5.07;;;2.75;;
5585;SDS011;2815;54.094;12.112;2023-05-07T11:31:55;3.40;;;2.30;;
5585;SDS011;2815;54.094;12.112;2023-05-07T11:34:28;6.18;;;2.40;;
5585;SDS011;2815;54.094;12.112;2023-05-07T11:36:58;4.57;;;2.15;;
5585;SDS011;2815;54.094;12.112;2023-05-07T11:39:39;5.82;;;2.72;;
5585;SDS011;2815;54.094;12.112;2023-05-07T11:42:11;3.33;;;2.30;;
5585;SDS011;2815;54.094;12.112;2023-05-07T11:44:52;10.30;;;2.92;;
5585;SDS011;2815;54.094;12.112;2023-05-07T11:47:21;10.30;;;5.75;;
5585;SDS011;2815;54.094;12.112;2023-05-07T11:49:49;3.80;;;2.75;;
5585;SDS011;2815;54.094;12.112;2023-05-07T11:52:18;5.43;;;2.17;;
5585;SDS011;2815;54.094;12.112;2023-05-07T11:54:50;4.55;;;2.17;;
5585;SDS011;2815;54.094;12.112;2023-05-07T11:57:20;8.15;;;2.50;;
5585;SDS011;2815;54.094;12.112;2023-05-07T11:59:52;4.68;;;2.50;;
5585;SDS011;2815;54.094;12.112;2023-05-07T12:02:20;6.07;;;2.60;;
5585;SDS011;2815;54.094;12.112;2023-05-07T12:04:49;4.35;;;2.58;;
5585;SDS011;2815;54.094;12.112;2023-05-07T12:07:17;2.90;;;1.92;;
5585;SDS011;2815;54.094;12.112;2023-05-07T12:09:45;4.20;;;2.50;;
5585;SDS011;2815;54.094;12.112;2023-05-07T12:12:14;5.55;;;2.58;;
5585;SDS011;2815;54.094;12.112;2023-05-07T12:14:45;4.22;;;2.45;;
5585;SDS011;2815;54.094;12.112;2023-05-07T12:17:14;5.43;;;2.20;;
5585;SDS011;2815;54.094;12.112;2023-05-07T12:19:43;6.00;;;2.72;;
5585;SDS011;2815;54.094;12.112;2023-05-07T12:22:12;4.90;;;2.40;;
5585;SDS011;2815;54.094;12.112;2023-05-07T12:24:44;5.20;;;2.40;;
5585;SDS011;2815;54.094;12.112;2023-05-07T12:27:12;3.83;;;2.50;;
5585;SDS011;2815;54.094;12.112;2023-05-07T12:29:45;4.07;;;2.55;;
5585;SDS011;2815;54.094;12.112;2023-05-07T12:34:42;3.28;;;2.10;;
5585;SDS011;2815;54.094;12.112;2023-05-07T12:37:11;4.05;;;2.63;;
5585;SDS011;2815;54.094;12.112;2023-05-07T12:39:44;3.95;;;2.17;;
5585;SDS011;2815;54.094;12.112;2023-05-07T12:42:14;4.43;;;2.25;;
5585;SDS011;2815;54.094;12.112;2023-05-07T12:44:46;6.18;;;3.17;;
5585;SDS011;2815;54.094;12.112;2023-05-07T12:47:14;6.68;;;2.60;;
5585;SDS011;2815;54.094;12.112;2023-05-07T12:49:42;5.65;;;2.67;;
5585;SDS011;2815;54.094;12.112;2023-05-07T12:52:12;4.10;;;2.70;;
5585;SDS011;2815;54.094;12.112;2023-05-07T12:54:40;3.22;;;2.20;;
5585;SDS011;2815;54.094;12.112;2023-05-07T12:57:08;6.20;;;2.50;;
5585;SDS011;2815;54.094;12.112;2023-05-07T12:59:37;4.00;;;2.50;;
5585;SDS011;2815;54.094;12.112;2023-05-07T13:02:07;3.38;;;2.00;;
5585;SDS011;2815;54.094;12.112;2023-05-07T13:04:37;5.28;;;2.58;;
5585;SDS011;2815;54.094;12.112;2023-05-07T13:07:06;4.70;;;2.20;;
5585;SDS011;2815;54.094;12.112;2023-05-07T13:09:34;6.97;;;2.30;;
5585;SDS011;2815;54.094;12.112;2023-05-07T13:12:03;5.45;;;2.47;;
5585;SDS011;2815;54.094;12.112;2023-05-07T13:14:32;4.10;;;2.13;;
5585;SDS011;2815;54.094;12.112;2023-05-07T13:17:00;4.57;;;2.42;;
5585;SDS011;2815;54.094;12.112;2023-05-07T13:19:29;4.60;;;2.38;;
5585;SDS011;2815;54.094;12.112;2023-05-07T13:21:57;3.53;;;2.10;;
5585;SDS011;2815;54.094;12.112;2023-05-07T13:24:25;4.38;;;2.22;;
5585;SDS011;2815;54.094;12.112;2023-05-07T13:26:53;4.10;;;2.10;;
5585;SDS011;2815;54.094;12.112;2023-05-07T13:29:21;4.45;;;2.30;;
5585;SDS011;2815;54.094;12.112;2023-05-07T13:31:54;5.45;;;2.00;;
5585;SDS011;2815;54.094;12.112;2023-05-07T13:34:23;7.45;;;2.40;;
5585;SDS011;2815;54.094;12.112;2023-05-07T13:36:52;6.13;;;2.20;;
5585;SDS011;2815;54.094;12.112;2023-05-07T13:39:20;3.92;;;2.38;;
5585;SDS011;2815;54.094;12.112;2023-05-07T13:41:48;4.15;;;2.08;;
5585;SDS011;2815;54.094;12.112;2023-05-07T13:44:16;4.10;;;2.58;;
5585;SDS011;2815;54.094;12.112;2023-05-07T13:46:44;6.05;;;2.40;;
5585;SDS011;2815;54.094;12.112;2023-05-07T13:49:12;3.60;;;2.25;;
5585;SDS011;2815;54.094;12.112;2023-05-07T13:51:40;3.47;;;2.50;;
5585;SDS011;2815;54.094;12.112;2023-05-07T13:54:10;4.45;;;2.40;;
5585;SDS011;2815;54.094;12.112;2023-05-07T13:56:38;4.53;;;2.63;;
5585;SDS011;2815;54.094;12.112;2023-05-07T13:59:06;4.68;;;2.90;;
5585;SDS011;2815;54.094;12.112;2023-05-07T14:01:34;3.95;;;2.47;;
5585;SDS011;2815;54.094;12.112;2023-05-07T14:04:02;4.50;;;2.30;;
5585;SDS011;2815;54.094;12.112;2023-05-07T14:06:30;3.85;;;2.40;;
5585;SDS011;2815;54.094;12.112;2023-05-07T14:08:58;5.38;;;1.98;;
5585;SDS011;2815;54.094;12.112;2023-05-07T14:11:28;3.72;;;2.10;;
5585;SDS011;2815;54.094;12.112;2023-05-07T14:13:56;5.53;;;2.22;;
5585;SDS011;2815;54.094;12.112;2023-05-07T14:16:24;3.58;;;2.03;;
5585;SDS011;2815;54.094;12.112;2023-05-07T14:18:52;5.05;;;1.92;;
5585;SDS011;2815;54.094;12.112;2023-05-07T14:21:23;3.42;;;2.00;;
5585;SDS011;2815;54.094;12.112;2023-05-07T14:23:51;4.13;;;1.98;;
5585;SDS011;2815;54.094;12.112;2023-05-07T14:26:19;5.47;;;2.03;;
5585;SDS011;2815;54.094;12.112;2023-05-07T14:28:50;4.75;;;2.30;;
5585;SDS011;2815;54.094;12.112;2023-05-07T14:31:19;5.28;;;2.10;;
5585;SDS011;2815;54.094;12.112;2023-05-07T14:33:47;4.80;;;2.10;;
5585;SDS011;2815;54.094;12.112;2023-05-07T14:36:16;2.80;;;2.00;;
5585;SDS011;2815;54.094;12.112;2023-05-07T14:38:44;7.85;;;2.08;;
5585;SDS011;2815;54.094;12.112;2023-05-07T14:41:12;3.25;;;2.05;;
5585;SDS011;2815;54.094;12.112;2023-05-07T14:43:41;3.58;;;2.15;;
5585;SDS011;2815;54.094;12.112;2023-05-07T14:46:11;5.78;;;1.45;;
5585;SDS011;2815;54.094;12.112;2023-05-07T14:48:39;2.83;;;1.90;;
5585;SDS011;2815;54.094;12.112;2023-05-07T14:51:07;2.97;;;1.90;;
5585;SDS011;2815;54.094;12.112;2023-05-07T14:53:35;3.33;;;1.63;;
5585;SDS011;2815;54.094;12.112;2023-05-07T14:56:03;7.45;;;1.80;;
5585;SDS011;2815;54.094;12.112;2023-05-07T14:58:32;2.75;;;1.90;;
5585;SDS011;2815;54.094;12.112;2023-05-07T15:01:00;2.88;;;1.80;;
5585;SDS011;2815;54.094;12.112;2023-05-07T15:03:29;2.80;;;1.58;;
5585;SDS011;2815;54.094;12.112;2023-05-07T15:05:57;4.72;;;1.92;;
5585;SDS011;2815;54.094;12.112;2023-05-07T15:08:25;3.28;;;1.90;;
5585;SDS011;2815;54.094;12.112;2023-05-07T15:10:54;2.50;;;1.50;;
5585;SDS011;2815;54.094;12.112;2023-05-07T15:13:22;2.83;;;1.77;;
5585;SDS011;2815;54.094;12.112;2023-05-07T15:15:50;2.10;;;1.35;;
5585;SDS011;2815;54.094;12.112;2023-05-07T15:18:18;2.85;;;1.70;;
5585;SDS011;2815;54.094;12.112;2023-05-07T15:20:49;4.43;;;2.28;;
5585;SDS011;2815;54.094;12.112;2023-05-07T15:23:17;2.58;;;1.92;;
5585;SDS011;2815;54.094;12.112;2023-05-07T15:25:47;3.60;;;1.73;;
5585;SDS011;2815;54.094;12.112;2023-05-07T15:28:17;5.20;;;1.63;;
5585;SDS011;2815;54.094;12.112;2023-05-07T15:30:45;4.50;;;1.80;;
5585;SDS011;2815;54.094;12.112;2023-05-07T15:33:13;3.78;;;1.80;;
5585;SDS011;2815;54.094;12.112;2023-05-07T15:35:41;4.30;;;1.90;;
5585;SDS011;2815;54.094;12.112;2023-05-07T15:38:11;3.30;;;1.77;;
5585;SDS011;2815;54.094;12.112;2023-05-07T15:40:39;5.50;;;1.80;;
5585;SDS011;2815;54.094;12.112;2023-05-07T15:43:08;2.83;;;1.60;;